M I D A S
Marine Information and Data Acquisition System
Tripno 1176 of the Zeeleeuw from 2006-12-01 08:00:00 to 2006-12-01 17:00:00
Back to CruiseResearch ActivitiesStationsMapUnderway DataData graphs

EquipmentUnitsComments
TimeDGPSUTC
LatitudeDGPSDM.mWGS84
LongitudeDGPSDM.mWGS84
SpeedMeteo Stationm/sRelative wind speed
DirectionMeteo StationdegRelative wind direction
TemperatureMeteo Stationdeg CelciusAir temperature
PressureMeteo StationPaAtmospheric pressure
HumidityMeteo Station%Relative humidity
Missing or incorrect values are displayed as -999
Metereological data collected by the RV Zeeleeuw from 2006-12-01 08:00:00 to 2006-12-01 17:00:00
Time Latitude Longitude Speed Direction Temperature Pressure Humidity
2006-12-01 09:29:22 51°21.889 2°58.369 13.5 311 8.4 102060 85
2006-12-01 09:29:27 51°21.891 2°58.366 14.5 19 8.4 102080 85
2006-12-01 09:29:32 51°21.894 2°58.363 14.6 304 8.4 102080 85
2006-12-01 09:29:37 51°21.896 2°58.36 16 249 8.4 102080 85
2006-12-01 09:29:42 51°21.897 2°58.356 15.6 304 8.4 102080 85
2006-12-01 09:29:47 51°21.899 2°58.352 13.8 245 8.4 102060 85
2006-12-01 09:29:52 51°21.9 2°58.348 14 308 8.4 102060 85
2006-12-01 09:29:56 51°21.9 2°58.345 14.1 20 8.4 102050 85
2006-12-01 09:30:02 51°21.9 2°58.34 16.6 308 8.4 102050 85
2006-12-01 09:30:07 51°21.899 2°58.336 14.9 22 8.4 102030 85
2006-12-01 09:30:12 51°21.898 2°58.332 13.5 304 8.4 102030 85
2006-12-01 09:30:16 51°21.897 2°58.328 14.8 20 8.4 102010 85
2006-12-01 09:30:22 51°21.895 2°58.322 14.9 303 8.4 102010 85
2006-12-01 09:30:27 51°21.893 2°58.317 14.5 26 8.4 102020 85
2006-12-01 09:30:32 51°21.891 2°58.312 16.1 308 8.4 102020 85
2006-12-01 09:30:35 51°21.89 2°58.309 16 23 8.4 102010 85
2006-12-01 09:30:35 51°21.89 2°58.309 16.4 308 8.4 102010 85
2006-12-01 13:22:12 51°13.597 2°56.094 6 350 9 102000 83
2006-12-01 13:22:12 51°13.597 2°56.094 4.1 360 9 102000 83